A- A+ FrançaisEnglishEspañol中国

Services sur Internet Soldes sur Internet Des idées de cadeaux Météo Météo aéro

La météo à : Autours de vous AlbertvilleTarbes-Lourdes-PyrénéesBiarritz-Bayonne-Anglet Avignon Pujaut

manche à air

La météo aéronautique pour les pilotes, la préparation du vol avec les METAR (METeorological Aerodrome Report, message d'observation des conditions météorologiques pour l'aviation) et Les TAF (Terminal Aerodrome Forecast : message de prévision à court terme des conditions météorologiques pour l'aviation). Et les autres ressources comme les VAC (Visual Approch Chart) et les NOTAM (Notice To Airman) pour préprer les vols.

Aéroport Warton (Royaume-Uni) / OACI EGNO/ IATA WRT

L'altitude de l'aéroport Warton est de 17 m = 56 ft. Il est situé à proximité de Warton (Royaume-Uni). La météo générale à 5 jours est disponible pour Marton situé à 8.8 km.

METAR de l'aéroport Warton - EGNO

EGNO 051320Z 21012KT 9000 -RA FEW022 BKN028 09/08 Q1009

Décodage du METAR de l'aéroport Warton (GB)

METAR émis par EGNO le jeudi 5 décembre 2019 à 13:20 heure TU. Attention ce METAR est obsolète car il a été émis il y a 10 heure et 28 minutes.

La visibilité est de 9 km = 5.6 sm.

La température est de 9°C = 48 °F et le point rosée est de 8°C = 46 °F . Ce qui correspond à 93% d'humidité relative.

Le QNH est de 1009 hPa = 29.8 inHg

Vent de 12 kt = 22 km/h, orienté à 210°.

Nuages : Quelques nuages à 2200 ft = 670 mètres. Couverture nuageuse fragmentée à 2800 ft = 850 mètres.

-RA

TAF de l'aéroport Warton - EGNO

EGNO 101421Z 1015/1019 19022G35KT 3000 +RA BKN004

EGNO 101421Z 1015/1019 19022G35KT 3000 forte RA couverture nuageuse fragmentée à 004

Aéroport à proximité de Warton

Météo générale à 5 jours à Marton (8.8 km)Aéroport Blackpool (10 km)Aéroport Woodvale (21 km)Aéroport Manchester Barton (45 km)Aéroport Liverpool (46 km)Aéroport Barrow (50 km)Aéroport Manchester (59 km)

Vue aérienne de l'aéroport Warton

NOTAM de l'aéroport Warton

Les NOTAM sont fournis sans aucune garantie de leur actualité. Le pilote est le seul responsable de la vérification de sa validité avant de l'utiliser opérationnellement pour préparer un vol ou l'utiliser lors de sa navigation.

Pas de NOTAM

Sources des données